Time;durP1;ratioP1;P1;durP2;ratioP2;P2;SDS_P1;SDS_P2;PMS_P1;PMS_P2;Temp;Humidity;BMP_temperature;BMP_pressure;BME280_temperature;BME280_humidity;BME280_pressure;Samples;Min_cycle;Max_cycle;Signal;HPM_P1;HPM_P2
2022/03/15 00:00:21;;;;;;;57.05;32.80;;;;;;;5.28;92.60;102746.66;5023628;28;20021;-67
2022/03/15 00:02:49;;;;;;;52.38;30.83;;;;;;;5.28;92.53;102741.22;5025291;28;20060;-68
2022/03/15 00:05:15;;;;;;;53.80;31.25;;;;;;;5.23;92.26;102748.13;5025088;28;20040;-67
2022/03/15 00:07:40;;;;;;;49.33;26.92;;;;;;;5.18;92.09;102757.59;5025525;28;20029;-68
2022/03/15 00:10:06;;;;;;;51.72;28.63;;;;;;;5.16;91.70;102753.28;5025555;28;20017;-68
2022/03/15 00:12:33;;;;;;;54.58;30.83;;;;;;;5.11;92.20;102750.13;5025522;28;20025;-67
2022/03/15 00:14:58;;;;;;;41.85;25.33;;;;;;;5.07;91.99;102741.44;5025500;28;20427;-67
2022/03/15 00:17:23;;;;;;;45.03;27.13;;;;;;;5.04;92.26;102743.59;5024718;28;20038;-67
2022/03/15 00:19:49;;;;;;;42.30;25.80;;;;;;;5.00;92.32;102742.16;5024959;28;20033;-68
2022/03/15 00:22:14;;;;;;;53.55;30.65;;;;;;;5.03;92.59;102736.44;5024933;28;20040;-68
2022/03/15 00:24:41;;;;;;;58.22;33.72;;;;;;;5.02;92.37;102734.69;5025464;28;20089;-68
2022/03/15 00:27:06;;;;;;;64.40;34.75;;;;;;;5.06;92.40;102736.97;5024287;28;20840;-67
2022/03/15 00:29:31;;;;;;;58.78;32.65;;;;;;;5.10;92.36;102742.97;5024749;28;20064;-68
2022/03/15 00:31:57;;;;;;;59.80;32.72;;;;;;;5.13;92.24;102732.66;5024633;28;20076;-68
2022/03/15 00:34:22;;;;;;;59.72;33.47;;;;;;;5.09;91.78;102742.13;5024675;28;20029;-68
2022/03/15 00:36:48;;;;;;;58.13;33.50;;;;;;;5.09;92.47;102741.28;5024694;28;20436;-68
2022/03/15 00:39:15;;;;;;;62.75;32.28;;;;;;;5.06;92.53;102742.41;5024938;28;20076;-67
2022/03/15 00:41:40;;;;;;;59.55;32.38;;;;;;;5.05;92.59;102742.56;5023815;28;20026;-67
2022/03/15 00:44:05;;;;;;;65.07;34.08;;;;;;;5.07;93.02;102743.25;5025312;28;20491;-68
2022/03/15 00:46:30;;;;;;;65.18;37.00;;;;;;;5.06;92.64;102739.69;5023299;28;20066;-68
2022/03/15 00:48:56;;;;;;;62.28;34.08;;;;;;;5.08;92.78;102736.84;5024926;28;20480;-67
2022/03/15 00:51:21;;;;;;;61.10;34.28;;;;;;;5.09;92.66;102731.22;5024474;28;20026;-67
2022/03/15 00:53:46;;;;;;;66.03;34.60;;;;;;;5.10;92.93;102730.22;5024538;28;20095;-68
2022/03/15 00:56:11;;;;;;;60.85;34.45;;;;;;;5.07;92.93;102724.19;5022936;28;20034;-67
2022/03/15 00:58:37;;;;;;;67.65;34.72;;;;;;;5.03;92.76;102729.09;5025133;28;20025;-67
2022/03/15 01:01:02;;;;;;;72.10;36.13;;;;;;;5.01;92.91;102731.09;5024529;28;20025;-67
2022/03/15 01:03:27;;;;;;;76.38;38.97;;;;;;;5.04;93.48;102717.19;5024355;28;20033;-68
2022/03/15 01:05:53;;;;;;;75.05;37.20;;;;;;;5.08;94.42;102718.63;5024390;28;20595;-67
2022/03/15 01:08:18;;;;;;;73.93;38.83;;;;;;;5.12;94.62;102713.72;5024327;28;20052;-68
2022/03/15 01:10:44;;;;;;;72.90;39.40;;;;;;;5.13;94.66;102718.19;5023197;28;20479;-67
2022/03/15 01:13:10;;;;;;;69.45;37.80;;;;;;;5.16;95.17;102721.44;5024099;28;20539;-67
2022/03/15 01:15:41;;;;;;;74.00;39.67;;;;;;;5.18;95.16;102719.44;5024787;28;20021;-68
2022/03/15 01:18:07;;;;;;;64.25;36.17;;;;;;;5.21;95.50;102719.13;5025176;28;20045;-67
2022/03/15 01:20:32;;;;;;;74.68;39.45;;;;;;;5.20;95.20;102720.16;5023959;28;20037;-67
2022/03/15 01:22:57;;;;;;;71.93;38.28;;;;;;;5.22;95.02;102714.56;5024650;28;20416;-67
2022/03/15 01:25:23;;;;;;;73.05;39.83;;;;;;;5.22;95.26;102714.56;5023144;28;20177;-67
2022/03/15 01:27:48;;;;;;;76.85;38.35;;;;;;;5.26;95.29;102717.84;5024027;28;20022;-68
2022/03/15 01:30:13;;;;;;;69.85;37.28;;;;;;;5.26;95.52;102715.09;5024303;28;20108;-67
2022/03/15 01:32:39;;;;;;;65.90;37.45;;;;;;;5.26;95.07;102713.25;5023696;28;20034;-68
2022/03/15 01:35:05;;;;;;;70.13;41.17;;;;;;;5.30;95.30;102703.75;5023981;28;20033;-67
2022/03/15 01:37:30;;;;;;;68.53;37.13;;;;;;;5.34;95.13;102705.19;5021383;28;20033;-67
2022/03/15 01:39:55;;;;;;;68.60;38.75;;;;;;;5.35;94.76;102704.16;5023233;28;20168;-67
2022/03/15 01:42:21;;;;;;;71.85;40.13;;;;;;;5.37;94.85;102701.28;5023654;28;20031;-67
2022/03/15 01:44:47;;;;;;;68.32;37.92;;;;;;;5.35;94.68;102692.41;5023482;28;20033;-67
2022/03/15 01:47:13;;;;;;;68.88;37.95;;;;;;;5.33;94.42;102692.56;5022194;28;20029;-67
2022/03/15 01:49:39;;;;;;;63.55;37.38;;;;;;;5.31;94.33;102691.84;5023785;28;20029;-67
2022/03/15 01:52:05;;;;;;;62.97;36.95;;;;;;;5.31;94.48;102693.72;5023429;28;20431;-67
2022/03/15 01:54:31;;;;;;;61.67;36.63;;;;;;;5.30;94.14;102683.84;5023693;28;20033;-68
2022/03/15 01:56:56;;;;;;;58.92;36.28;;;;;;;5.31;93.77;102680.09;5022607;28;20053;-67
2022/03/15 01:59:21;;;;;;;63.45;36.92;;;;;;;5.28;94.17;102683.16;5023424;28;20030;-67
2022/03/15 02:01:46;;;;;;;59.55;36.45;;;;;;;5.24;93.74;102682.56;5021324;28;20034;-67
2022/03/15 02:04:12;;;;;;;59.30;35.63;;;;;;;5.25;94.21;102673.38;5023111;28;20721;-67
2022/03/15 02:06:41;;;;;;;70.13;36.70;;;;;;;5.28;94.30;102673.09;5023726;28;20021;-67
2022/03/15 02:09:08;;;;;;;61.78;35.42;;;;;;;5.25;93.94;102677.97;5004173;28;20529;-68
2022/03/15 02:11:34;;;;;;;63.08;37.20;;;;;;;5.21;93.67;102685.59;5011487;28;20026;-67
2022/03/15 02:13:59;;;;;;;61.88;35.22;;;;;;;5.25;93.91;102686.16;5023783;28;20083;-67
2022/03/15 02:16:25;;;;;;;55.92;35.55;;;;;;;5.24;93.40;102681.72;5022938;28;20468;-67
2022/03/15 02:18:50;;;;;;;57.38;33.17;;;;;;;5.26;93.62;102682.41;5023314;28;20064;-68
2022/03/15 02:21:16;;;;;;;57.70;35.22;;;;;;;5.21;93.53;102671.97;5022746;28;20033;-67
2022/03/15 02:23:41;;;;;;;56.83;35.13;;;;;;;5.23;93.46;102669.13;5023161;28;20091;-68
2022/03/15 02:26:06;;;;;;;59.80;34.50;;;;;;;5.23;93.72;102663.66;5022029;28;20029;-67
2022/03/15 02:28:31;;;;;;;57.28;33.72;;;;;;;5.19;93.43;102655.78;5023082;28;20030;-68
2022/03/15 02:30:57;;;;;;;64.15;35.70;;;;;;;5.20;93.57;102662.09;5022767;28;20515;-68
2022/03/15 02:33:23;;;;;;;60.78;38.00;;;;;;;5.19;93.40;102655.78;5022444;28;20032;-67
2022/03/15 02:35:48;;;;;;;57.22;34.05;;;;;;;5.18;93.54;102654.06;5022329;28;20065;-68
2022/03/15 02:38:14;;;;;;;58.97;35.35;;;;;;;5.16;93.57;102656.06;5022850;28;20112;-67
2022/03/15 02:40:40;;;;;;;56.92;36.22;;;;;;;5.15;93.46;102651.66;5020971;28;20087;-67
2022/03/15 02:43:05;;;;;;;55.03;32.83;;;;;;;5.12;93.51;102646.50;5021570;28;20033;-68
2022/03/15 02:45:30;;;;;;;56.38;34.13;;;;;;;5.15;93.60;102648.91;5022124;28;20095;-68
2022/03/15 02:47:56;;;;;;;58.05;34.90;;;;;;;5.15;93.76;102637.16;5022136;28;20069;-68
2022/03/15 02:50:22;;;;;;;52.53;32.85;;;;;;;5.18;93.54;102643.19;5022342;28;20040;-68
2022/03/15 02:52:48;;;;;;;53.28;33.70;;;;;;;5.18;93.18;102632.28;5022469;28;20029;-67
2022/03/15 02:55:13;;;;;;;55.53;33.28;;;;;;;5.21;93.24;102634.69;5021574;28;20357;-67
2022/03/15 02:57:40;;;;;;;55.83;33.10;;;;;;;5.22;92.74;102632.84;5021274;28;20469;-68
2022/03/15 03:00:06;;;;;;;48.35;33.00;;;;;;;5.20;93.22;102629.41;5022453;28;20041;-68
2022/03/15 03:02:33;;;;;;;53.78;33.08;;;;;;;5.21;93.15;102625.66;5020888;28;20049;-68
2022/03/15 03:04:58;;;;;;;53.83;34.25;;;;;;;5.18;92.90;102635.00;5022904;28;20116;-68
2022/03/15 03:07:24;;;;;;;52.75;32.45;;;;;;;5.19;92.77;102623.09;5021833;28;20113;-68
2022/03/15 03:09:49;;;;;;;52.25;32.33;;;;;;;5.18;92.83;102623.25;5021798;28;20069;-68
2022/03/15 03:12:16;;;;;;;54.20;32.10;;;;;;;5.16;92.77;102617.94;5022679;28;20052;-68
2022/03/15 03:14:41;;;;;;;52.15;32.45;;;;;;;5.15;92.83;102609.94;5022348;28;20033;-68
2022/03/15 03:17:07;;;;;;;52.92;31.48;;;;;;;5.12;92.52;102607.50;5022737;28;20033;-68
2022/03/15 03:19:34;;;;;;;50.40;31.70;;;;;;;5.08;92.49;102606.97;5022674;28;20025;-67
2022/03/15 03:21:59;;;;;;;53.50;31.33;;;;;;;5.07;92.70;102607.09;5022587;28;20029;-68
2022/03/15 03:24:24;;;;;;;50.40;31.15;;;;;;;5.06;92.92;102597.22;5021258;28;20026;-68
2022/03/15 03:26:50;;;;;;;52.08;31.23;;;;;;;5.05;92.71;102588.19;5022385;28;20086;-68
2022/03/15 03:29:16;;;;;;;44.88;30.58;;;;;;;5.04;92.85;102599.25;5022128;28;20041;-67
2022/03/15 03:31:43;;;;;;;49.72;30.08;;;;;;;5.03;92.68;102598.41;5021758;28;20025;-68
2022/03/15 03:34:11;;;;;;;49.83;31.90;;;;;;;5.02;92.80;102596.69;5021904;28;20052;-68
2022/03/15 03:36:37;;;;;;;49.28;31.52;;;;;;;5.04;92.76;102599.25;5026830;28;20033;-67
2022/03/15 03:39:04;;;;;;;53.38;31.83;;;;;;;5.03;93.14;102603.84;5026637;28;20026;-67
2022/03/15 03:41:29;;;;;;;51.22;31.90;;;;;;;5.04;92.61;102600.09;5024571;28;20089;-67
2022/03/15 03:43:54;;;;;;;47.58;29.92;;;;;;;5.05;92.77;102593.66;5025882;28;20112;-67
2022/03/15 03:46:20;;;;;;;52.80;30.98;;;;;;;5.05;93.02;102593.66;5025059;28;20403;-67
2022/03/15 03:48:45;;;;;;;45.88;30.25;;;;;;;5.04;92.97;102602.81;5025501;28;20056;-67
2022/03/15 03:51:13;;;;;;;48.78;30.25;;;;;;;5.03;92.87;102592.94;5026047;28;20371;-67
2022/03/15 03:53:39;;;;;;;53.42;31.33;;;;;;;5.03;92.62;102592.09;5026404;28;20036;-67
2022/03/15 03:56:05;;;;;;;49.22;29.60;;;;;;;4.98;92.76;102589.81;5024977;28;20065;-67
2022/03/15 03:58:30;;;;;;;47.17;31.42;;;;;;;5.02;92.46;102593.97;5025382;28;20049;-67
2022/03/15 04:00:55;;;;;;;46.50;31.00;;;;;;;5.02;92.70;102595.81;5025121;28;20045;-67
2022/03/15 04:03:22;;;;;;;49.28;31.42;;;;;;;5.01;92.75;102592.22;5024360;28;20037;-67
2022/03/15 04:05:49;;;;;;;47.13;30.98;;;;;;;5.01;92.98;102597.66;5024798;28;20036;-67
2022/03/15 04:08:15;;;;;;;47.42;32.30;;;;;;;5.01;92.77;102596.81;5025927;28;20025;-66
2022/03/15 04:10:41;;;;;;;49.10;31.35;;;;;;;5.06;92.79;102599.94;5024218;28;20029;-67
2022/03/15 04:13:07;;;;;;;45.15;29.80;;;;;;;5.05;92.20;102598.22;5026010;28;20629;-67
2022/03/15 04:15:33;;;;;;;46.78;29.23;;;;;;;5.07;92.52;102593.47;5025413;28;20017;-67
2022/03/15 04:17:59;;;;;;;44.67;30.88;;;;;;;5.07;92.51;102598.94;5025416;28;20136;-67
2022/03/15 04:20:25;;;;;;;48.35;29.83;;;;;;;5.07;93.05;102602.53;5025297;28;20026;-67
2022/03/15 04:22:50;;;;;;;43.83;30.63;;;;;;;5.09;92.93;102592.34;5025109;28;20061;-67
2022/03/15 04:25:15;;;;;;;48.00;29.92;;;;;;;5.08;92.70;102600.66;5024121;28;20044;-67
2022/03/15 04:27:41;;;;;;;49.90;30.23;;;;;;;5.05;92.42;102593.66;5025226;28;20040;-67
2022/03/15 04:30:06;;;;;;;45.70;32.33;;;;;;;5.07;92.97;102596.22;5025603;28;20116;-67
2022/03/15 04:32:32;;;;;;;44.05;30.08;;;;;;;5.05;92.89;102593.66;5024851;28;20066;-67
2022/03/15 04:34:58;;;;;;;46.72;30.30;;;;;;;5.06;92.74;102595.34;5025154;28;20105;-67
2022/03/15 04:37:23;;;;;;;47.25;29.33;;;;;;;5.05;92.65;102593.66;5024609;28;20033;-67
2022/03/15 04:39:49;;;;;;;43.83;29.85;;;;;;;5.03;93.12;102592.94;5023918;28;20430;-67
2022/03/15 04:42:15;;;;;;;45.55;30.20;;;;;;;5.01;93.14;102584.06;5024543;28;20059;-67
2022/03/15 04:44:40;;;;;;;45.90;30.05;;;;;;;5.00;92.92;102586.94;5023720;28;20033;-67
2022/03/15 04:47:06;;;;;;;45.85;30.15;;;;;;;4.95;93.03;102582.81;5023471;28;20026;-67
2022/03/15 04:49:31;;;;;;;41.25;29.58;;;;;;;4.92;93.40;102582.25;5025302;28;20037;-67
2022/03/15 04:51:57;;;;;;;45.55;29.15;;;;;;;4.92;93.43;102585.00;5024840;28;20071;-67
2022/03/15 04:54:22;;;;;;;44.28;29.65;;;;;;;4.96;93.50;102583.66;5023808;28;20403;-67
2022/03/15 04:56:47;;;;;;;45.28;29.13;;;;;;;4.95;93.34;102585.53;5024112;28;20092;-67
2022/03/15 04:59:13;;;;;;;43.60;29.48;;;;;;;4.93;93.55;102579.38;5024803;28;20460;-67
2022/03/15 05:01:38;;;;;;;45.65;29.63;;;;;;;4.92;93.14;102576.81;5023436;28;20488;-67
2022/03/15 05:04:04;;;;;;;39.15;28.23;;;;;;;4.91;92.77;102572.38;5021036;28;20047;-67
2022/03/15 05:06:29;;;;;;;42.58;28.70;;;;;;;4.91;92.80;102569.63;5024290;28;20561;-67
2022/03/15 05:08:55;;;;;;;42.05;28.02;;;;;;;4.91;93.12;102575.94;5023542;28;20017;-67
2022/03/15 05:11:21;;;;;;;43.30;28.85;;;;;;;4.91;93.09;102575.09;5023284;28;20040;-67
2022/03/15 05:13:48;;;;;;;45.50;29.13;;;;;;;4.93;93.37;102573.94;5024176;28;20110;-67
2022/03/15 05:16:22;;;;;;;45.63;28.27;;;;;;;4.96;92.99;102575.50;5023603;28;20388;-67
2022/03/15 05:18:54;;;;;;;38.40;28.00;;;;;;;4.92;93.00;102574.09;5024565;28;20160;-67
2022/03/15 05:21:24;;;;;;;46.10;29.10;;;;;;;4.91;92.72;102575.09;5023816;28;20084;-67
2022/03/15 05:23:51;;;;;;;41.28;27.23;;;;;;;4.90;93.02;102565.22;5024211;28;20109;-67
2022/03/15 05:26:17;;;;;;;42.22;28.75;;;;;;;4.92;92.97;102565.94;5022878;28;20052;-67
2022/03/15 05:28:43;;;;;;;43.38;29.05;;;;;;;4.89;92.82;102564.34;5023943;28;20017;-67
2022/03/15 05:31:10;;;;;;;44.45;28.40;;;;;;;4.89;92.64;102566.22;5023572;28;20963;-67
2022/03/15 05:33:35;;;;;;;41.28;28.52;;;;;;;4.88;93.21;102567.25;5024731;28;20136;-67
2022/03/15 05:36:01;;;;;;;43.80;29.95;;;;;;;4.87;92.77;102566.38;5023699;28;20087;-67
2022/03/15 05:38:27;;;;;;;46.33;28.70;;;;;;;4.86;92.60;102561.06;5023662;28;20448;-68
2022/03/15 05:40:52;;;;;;;39.80;26.85;;;;;;;4.88;92.69;102561.78;5022863;28;20025;-68
2022/03/15 05:43:19;;;;;;;41.95;28.35;;;;;;;4.89;92.30;102567.06;5023131;28;20099;-67
2022/03/15 05:45:44;;;;;;;42.10;28.10;;;;;;;4.89;92.49;102555.34;5022937;28;20026;-67
2022/03/15 05:48:10;;;;;;;42.00;28.02;;;;;;;4.89;92.19;102550.75;5023731;28;20026;-67
2022/03/15 05:50:35;;;;;;;42.95;28.75;;;;;;;4.89;92.27;102550.75;5024208;28;20029;-68
2022/03/15 05:53:04;;;;;;;41.30;28.10;;;;;;;4.90;92.41;102557.03;5022330;28;20048;-68
2022/03/15 05:55:31;;;;;;;40.72;28.67;;;;;;;4.88;92.45;102549.03;5021328;28;20036;-68
2022/03/15 05:57:57;;;;;;;47.88;27.80;;;;;;;4.89;92.37;102550.75;5023109;28;20600;-68
2022/03/15 06:00:22;;;;;;;45.47;27.98;;;;;;;4.88;92.52;102540.00;5022747;28;20112;-68
2022/03/15 06:02:47;;;;;;;40.80;26.25;;;;;;;4.84;92.69;102542.16;5023073;28;20108;-69
2022/03/15 06:05:12;;;;;;;41.40;27.13;;;;;;;4.82;93.00;102540.63;5023766;28;20522;-68
2022/03/15 06:07:49;;;;;;;42.38;27.75;;;;;;;4.82;93.08;102541.47;5023945;28;20116;-68
2022/03/15 06:10:18;;;;;;;40.90;28.23;;;;;;;4.81;93.09;102541.59;5022055;28;20411;-68
2022/03/15 06:12:44;;;;;;;45.67;29.08;;;;;;;4.82;93.05;102543.34;5023471;28;20056;-68
2022/03/15 06:15:10;;;;;;;40.42;29.27;;;;;;;4.85;92.79;102540.31;5022736;28;20027;-66
2022/03/15 06:17:49;;;;;;;41.03;28.55;;;;;;;4.87;92.77;102531.00;5023387;28;20025;-68
2022/03/15 06:20:16;;;;;;;46.80;27.73;;;;;;;4.87;92.47;102531.00;5023132;28;20021;-68
2022/03/15 06:22:42;;;;;;;45.77;27.80;;;;;;;4.91;92.47;102535.09;5021509;28;20432;-68
2022/03/15 06:25:09;;;;;;;39.97;28.27;;;;;;;4.94;92.30;102531.22;5022139;28;20048;-69
2022/03/15 06:27:34;;;;;;;38.35;27.08;;;;;;;4.96;92.35;102531.91;5023242;28;20033;-68
2022/03/15 06:30:00;;;;;;;40.85;28.50;;;;;;;5.02;92.44;102533.16;5022710;28;20017;-68
2022/03/15 06:32:26;;;;;;;39.88;28.38;;;;;;;5.05;92.23;102536.47;5022291;28;20037;-67
2022/03/15 06:34:51;;;;;;;38.70;27.48;;;;;;;5.09;91.68;102539.75;5021863;28;20053;-67
2022/03/15 06:37:16;;;;;;;39.63;27.65;;;;;;;5.11;91.96;102538.56;5022749;28;20032;-67
2022/03/15 06:39:44;;;;;;;37.65;26.95;;;;;;;5.13;91.74;102525.66;5021832;28;20106;-67
2022/03/15 06:42:11;;;;;;;36.75;26.45;;;;;;;5.16;91.03;102519.88;5022515;28;20025;-65
2022/03/15 06:44:37;;;;;;;42.08;27.02;;;;;;;5.19;90.92;102526.91;5023114;28;20029;-67
2022/03/15 06:47:02;;;;;;;38.63;25.80;;;;;;;5.21;91.15;102517.56;5021850;28;20032;-67
2022/03/15 06:49:27;;;;;;;43.95;26.70;;;;;;;5.24;90.73;102516.41;5022457;28;20231;-67
2022/03/15 06:51:53;;;;;;;43.20;26.67;;;;;;;5.26;90.68;102514.38;5022627;28;20392;-67
2022/03/15 06:54:18;;;;;;;45.22;27.55;;;;;;;5.27;90.66;102509.78;5021466;28;20048;-67
2022/03/15 06:56:43;;;;;;;38.33;26.77;;;;;;;5.30;90.89;102520.38;5022429;28;20902;-67
2022/03/15 06:59:08;;;;;;;41.40;26.25;;;;;;;5.32;90.51;102516.50;5022715;28;20032;-66
2022/03/15 07:01:34;;;;;;;37.38;25.02;;;;;;;5.36;90.42;102506.97;5022848;28;20021;-67
2022/03/15 07:03:59;;;;;;;39.75;25.45;;;;;;;5.39;89.98;102516.72;5022091;28;20030;-67
2022/03/15 07:06:24;;;;;;;35.40;24.65;;;;;;;5.43;89.97;102508.09;5022236;28;20447;-67
2022/03/15 07:08:50;;;;;;;37.38;24.42;;;;;;;5.47;89.58;102512.22;5021151;28;20022;-67
2022/03/15 07:11:15;;;;;;;41.75;24.20;;;;;;;5.54;89.21;102514.31;5021619;28;20017;-67
2022/03/15 07:13:40;;;;;;;37.38;23.25;;;;;;;5.57;88.90;102514.84;5022245;28;20085;-67
2022/03/15 07:16:06;;;;;;;36.38;23.25;;;;;;;5.64;88.83;102521.38;5022384;28;20033;-67
2022/03/15 07:18:31;;;;;;;36.20;23.80;;;;;;;5.66;88.83;102515.78;5022300;28;20034;-67
2022/03/15 07:20:56;;;;;;;37.28;23.25;;;;;;;5.71;89.04;102514.28;5021818;28;20076;-68
2022/03/15 07:23:22;;;;;;;35.60;22.60;;;;;;;5.73;89.05;102515.00;5021221;28;20192;-68
2022/03/15 07:25:47;;;;;;;30.70;22.13;;;;;;;5.75;88.28;102509.38;5019436;28;20025;-67
2022/03/15 07:28:12;;;;;;;31.75;21.02;;;;;;;5.82;88.30;102502.25;5020947;28;20029;-68
2022/03/15 07:30:38;;;;;;;34.92;21.35;;;;;;;5.85;87.51;102504.69;5021114;28;20026;-67
2022/03/15 07:33:03;;;;;;;40.17;22.35;;;;;;;5.88;88.03;102504.38;5022270;28;20166;-67
2022/03/15 07:35:28;;;;;;;30.92;21.02;;;;;;;5.91;87.55;102497.72;5019762;28;20045;-67
2022/03/15 07:37:55;;;;;;;34.58;21.77;;;;;;;5.96;87.63;102499.00;5018853;28;20387;-68
2022/03/15 07:40:22;;;;;;;31.55;19.90;;;;;;;6.00;87.43;102496.81;5020645;28;20078;-68
2022/03/15 07:42:48;;;;;;;31.00;20.95;;;;;;;6.02;87.57;102489.31;5021433;28;20029;-67
2022/03/15 07:45:14;;;;;;;34.28;20.80;;;;;;;6.05;87.21;102489.00;5021560;28;20255;-68
2022/03/15 07:47:39;;;;;;;29.35;20.15;;;;;;;6.08;87.21;102485.94;5022081;28;20030;-67
2022/03/15 07:50:04;;;;;;;32.33;21.33;;;;;;;6.11;87.41;102482.91;5022426;28;20092;-67
2022/03/15 07:52:30;;;;;;;29.40;20.42;;;;;;;6.18;88.17;102486.72;5020701;28;20048;-67
2022/03/15 07:54:55;;;;;;;29.88;19.55;;;;;;;6.21;86.73;102480.91;5019953;28;20102;-67
2022/03/15 07:57:20;;;;;;;28.65;17.80;;;;;;;6.26;86.23;102482.31;5020990;28;20046;-67
2022/03/15 07:59:46;;;;;;;29.05;18.35;;;;;;;6.31;86.28;102482.69;5020559;28;20033;-68
2022/03/15 08:02:12;;;;;;;27.58;17.48;;;;;;;6.34;86.08;102482.34;5020341;28;20017;-67
2022/03/15 08:04:37;;;;;;;27.88;17.35;;;;;;;6.38;85.46;102483.72;5019755;28;20029;-67
2022/03/15 08:07:03;;;;;;;26.30;18.20;;;;;;;6.44;85.66;102485.81;5019201;28;20400;-67
2022/03/15 08:09:28;;;;;;;29.15;17.90;;;;;;;6.47;85.43;102482.75;5020023;28;20036;-68
2022/03/15 08:11:53;;;;;;;26.45;16.90;;;;;;;6.53;85.39;102481.22;5018687;28;20022;-68
2022/03/15 08:14:19;;;;;;;25.35;17.45;;;;;;;6.57;85.18;102490.81;5019160;28;20492;-68
2022/03/15 08:16:44;;;;;;;24.70;17.15;;;;;;;6.61;85.13;102486.75;5019186;28;20237;-68
2022/03/15 08:19:11;;;;;;;31.25;18.27;;;;;;;6.63;84.73;102487.41;5019793;28;20026;-67
2022/03/15 08:21:37;;;;;;;27.50;16.85;;;;;;;6.70;84.92;102483.03;5023236;28;20017;-68
2022/03/15 08:24:02;;;;;;;32.60;17.83;;;;;;;6.77;85.92;102475.88;5021897;28;20121;-68
2022/03/15 08:26:27;;;;;;;28.30;16.30;;;;;;;6.82;84.80;102476.22;5022556;28;20593;-68
2022/03/15 08:28:52;;;;;;;28.42;16.02;;;;;;;6.85;84.37;102475.06;5023292;28;20095;-68
2022/03/15 08:31:18;;;;;;;27.50;15.82;;;;;;;6.89;84.70;102479.13;5022691;28;20028;-68
2022/03/15 08:33:44;;;;;;;27.30;15.07;;;;;;;6.92;84.52;102476.94;5023221;28;20030;-68
2022/03/15 08:36:11;;;;;;;25.83;16.58;;;;;;;6.96;83.93;102461.94;5023604;28;20032;-68
2022/03/15 08:38:36;;;;;;;24.45;15.05;;;;;;;7.02;83.66;102469.44;5023676;28;20078;-68
2022/03/15 08:41:01;;;;;;;25.85;15.52;;;;;;;7.08;83.92;102469.81;5023685;28;20101;-68
2022/03/15 08:43:26;;;;;;;25.27;15.32;;;;;;;7.10;83.80;102454.97;5023156;28;20363;-68
2022/03/15 08:45:52;;;;;;;23.52;13.77;;;;;;;7.14;84.01;102447.25;5022651;28;20164;-68
2022/03/15 08:48:18;;;;;;;24.27;15.05;;;;;;;7.14;83.02;102455.47;5023818;28;20561;-67
2022/03/15 08:50:43;;;;;;;22.80;15.50;;;;;;;7.18;83.83;102456.84;5024594;28;20040;-66
2022/03/15 08:53:08;;;;;;;23.88;14.57;;;;;;;7.28;84.24;102457.53;5024061;28;20032;-65
2022/03/15 08:55:35;;;;;;;21.35;14.82;;;;;;;7.36;83.33;102445.75;5023682;28;20030;-67
2022/03/15 08:58:01;;;;;;;23.88;14.93;;;;;;;7.44;83.84;102456.69;5011908;28;20033;-68
2022/03/15 09:00:26;;;;;;;25.40;14.35;;;;;;;7.50;82.99;102451.41;5023446;28;20029;-67
2022/03/15 09:02:52;;;;;;;24.42;14.38;;;;;;;7.58;82.68;102456.00;5023875;28;20491;-68
2022/03/15 09:05:19;;;;;;;24.67;13.60;;;;;;;7.68;81.50;102444.88;5022821;28;20029;-68
2022/03/15 09:07:52;;;;;;;22.73;13.65;;;;;;;7.76;81.89;102450.38;5024718;28;20032;-68
2022/03/15 09:10:18;;;;;;;23.13;14.43;;;;;;;7.82;80.63;102446.06;5022936;28;20083;-68
2022/03/15 09:12:44;;;;;;;24.88;14.85;;;;;;;7.86;81.47;102444.72;5023503;28;20057;-68
2022/03/15 09:15:09;;;;;;;33.17;17.15;;;;;;;7.92;80.22;102441.28;5023121;28;20061;-67
2022/03/15 09:17:35;;;;;;;31.63;16.95;;;;;;;7.98;80.03;102441.41;5022324;28;20033;-68
2022/03/15 09:20:00;;;;;;;28.90;17.55;;;;;;;8.01;79.70;102437.50;5023178;28;20751;-68
2022/03/15 09:22:25;;;;;;;28.30;16.08;;;;;;;8.03;78.33;102438.16;5023996;28;20699;-68
2022/03/15 09:24:50;;;;;;;24.00;15.77;;;;;;;8.07;79.89;102434.91;5023643;28;20029;-68
2022/03/15 09:27:16;;;;;;;24.08;15.20;;;;;;;8.12;78.31;102437.13;5023896;28;20061;-69
2022/03/15 09:29:41;;;;;;;29.17;15.48;;;;;;;8.17;79.17;102444.81;5022775;28;20037;-69
2022/03/15 09:32:07;;;;;;;26.65;15.18;;;;;;;8.22;79.07;102436.91;5022902;28;20484;-68
2022/03/15 09:34:33;;;;;;;22.80;12.82;;;;;;;8.30;78.20;102440.44;5022593;28;20037;-69
2022/03/15 09:36:59;;;;;;;29.48;13.00;;;;;;;8.43;76.94;102439.94;5023478;28;20087;-69
2022/03/15 09:39:25;;;;;;;20.27;12.90;;;;;;;8.49;77.60;102443.84;5022580;28;20017;-69
2022/03/15 09:41:53;;;;;;;22.90;13.00;;;;;;;8.51;76.11;102439.03;5023943;28;20037;-69
2022/03/15 09:44:19;;;;;;;24.30;12.68;;;;;;;8.60;77.72;102439.84;5023655;28;20052;-69
2022/03/15 09:46:50;;;;;;;31.80;13.18;;;;;;;8.64;76.53;102433.84;5023100;28;20407;-69
2022/03/15 09:49:18;;;;;;;26.95;12.82;;;;;;;8.75;75.91;102438.91;5016798;28;20045;-69
2022/03/15 09:51:45;;;;;;;20.30;12.48;;;;;;;8.78;74.54;102435.81;5022742;28;20384;-69
2022/03/15 09:54:12;;;;;;;28.77;12.60;;;;;;;8.80;76.32;102439.22;5023124;28;20033;-68
2022/03/15 09:56:41;;;;;;;25.13;14.70;;;;;;;8.83;76.25;102424.34;5023241;28;20136;-69
2022/03/15 09:59:18;;;;;;;23.45;13.25;;;;;;;8.88;74.45;102434.75;5023900;28;20079;-69
2022/03/15 10:01:45;;;;;;;24.10;13.57;;;;;;;8.93;73.89;102432.31;5023285;28;20148;-69
2022/03/15 10:04:10;;;;;;;24.55;13.20;;;;;;;8.97;74.14;102426.31;5023215;28;20033;-68
2022/03/15 10:06:37;;;;;;;25.77;13.77;;;;;;;8.97;74.58;102423.56;5023076;28;20125;-68
2022/03/15 10:09:03;;;;;;;25.25;13.00;;;;;;;8.98;74.99;102416.19;5022569;28;20024;-69
2022/03/15 10:11:28;;;;;;;22.55;13.07;;;;;;;9.03;75.17;102411.03;5023533;28;20803;-69
2022/03/15 10:13:54;;;;;;;20.27;13.07;;;;;;;9.06;73.52;102410.63;5023277;28;20033;-68
2022/03/15 10:16:21;;;;;;;22.00;12.75;;;;;;;9.10;74.31;102404.59;5022118;28;20113;-69
2022/03/15 10:18:55;;;;;;;23.55;12.70;;;;;;;9.17;74.70;102412.94;5023651;28;20083;-69
2022/03/15 10:21:24;;;;;;;24.60;13.95;;;;;;;9.21;75.10;102410.69;5023085;28;20026;-69
2022/03/15 10:23:52;;;;;;;21.75;13.13;;;;;;;9.24;73.76;102397.47;5021108;28;20662;-69
2022/03/15 10:26:25;;;;;;;24.30;13.48;;;;;;;9.30;74.75;102396.75;5020862;28;20044;-69
2022/03/15 10:28:53;;;;;;;22.70;12.82;;;;;;;9.36;73.12;102386.91;5022608;28;20101;-69
2022/03/15 10:31:22;;;;;;;24.83;13.68;;;;;;;9.36;73.75;102381.44;5021431;28;20172;-68
2022/03/15 10:33:50;;;;;;;22.90;13.70;;;;;;;9.44;74.43;102386.84;5010537;28;20120;-69
2022/03/15 10:36:17;;;;;;;23.63;13.68;;;;;;;9.48;73.03;102379.97;5021326;28;20440;-69
2022/03/15 10:38:46;;;;;;;23.55;14.18;;;;;;;9.55;74.05;102372.69;5022108;28;20033;-68
2022/03/15 10:41:14;;;;;;;24.45;12.70;;;;;;;9.61;72.65;102371.09;5022762;28;20423;-69
2022/03/15 10:43:40;;;;;;;29.60;14.73;;;;;;;9.67;73.97;102374.97;5022417;28;20040;-69
2022/03/15 10:46:10;;;;;;;18.02;13.02;;;;;;;9.71;73.28;102379.91;5022507;28;20307;-70
2022/03/15 10:48:36;;;;;;;28.15;13.80;;;;;;;9.76;71.31;102371.94;5021978;28;20037;-69
2022/03/15 10:51:11;;;;;;;25.02;13.95;;;;;;;9.84;72.24;102366.38;5022366;28;20048;-69
2022/03/15 10:53:38;;;;;;;20.42;13.27;;;;;;;9.88;71.18;102375.94;5021976;28;20136;-69
2022/03/15 10:56:23;;;;;;;23.08;13.70;;;;;;;9.99;72.56;102371.03;5022558;28;20049;-69
2022/03/15 10:58:49;;;;;;;20.58;12.48;;;;;;;9.98;68.85;102372.03;5022508;28;20159;-69
2022/03/15 11:01:25;;;;;;;22.92;13.30;;;;;;;9.96;70.26;102366.75;5022187;28;20079;-69
2022/03/15 11:03:56;;;;;;;24.27;13.15;;;;;;;10.01;70.50;102360.69;5021893;28;20024;-69
2022/03/15 11:06:48;;;;;;;21.70;12.63;;;;;;;10.02;70.68;102360.50;5022560;28;20108;-70
2022/03/15 11:09:17;;;;;;;21.00;13.43;;;;;;;9.97;71.10;102360.22;5017017;28;20042;-69
2022/03/15 11:11:45;;;;;;;25.58;13.05;;;;;;;9.96;71.01;102352.19;5022740;28;20500;-69